Time;durP1;ratioP1;P1;durP2;ratioP2;P2;SDS_P1;SDS_P2;PMS_P1;PMS_P2;Temp;Humidity;BMP_temperature;BMP_pressure;BME280_temperature;BME280_humidity;BME280_pressure;Samples;Min_cycle;Max_cycle;Signal;HPM_P1;HPM_P2
2022/11/30 00:00:41;;;;;;;31.80;26.37;;;1.30;99.90;0.30;101506;;;;577151;242;35194;-76
2022/11/30 00:03:09;;;;;;;32.67;24.47;;;1.30;99.90;0.30;101502;;;;582057;242;24084;-76
2022/11/30 00:05:37;;;;;;;34.37;25.30;;;1.40;99.90;0.40;101505;;;;582588;242;24056;-76
2022/11/30 00:08:05;;;;;;;31.60;23.53;;;1.30;99.90;0.30;101504;;;;582437;242;24041;-75
2022/11/30 00:10:33;;;;;;;33.97;24.90;;;1.30;99.90;0.40;101503;;;;582556;242;24043;-75
2022/11/30 00:13:01;;;;;;;31.17;23.77;;;1.30;99.90;0.30;101512;;;;582279;242;24064;-80
2022/11/30 00:15:28;;;;;;;32.83;22.90;;;1.30;99.90;0.40;101508;;;;582154;242;24137;-77
2022/11/30 00:17:59;;;;;;;33.30;23.53;;;1.30;99.90;0.40;101511;;;;582371;242;24062;-77
2022/11/30 00:20:24;;;;;;;30.63;23.10;;;1.30;99.90;0.30;101516;;;;592770;242;24135;-80
2022/11/30 00:22:52;;;;;;;32.03;23.63;;;1.30;99.90;0.30;101513;;;;583073;242;24093;-76
2022/11/30 00:25:21;;;;;;;34.23;23.43;;;1.30;99.90;0.30;101512;;;;584941;242;24129;-75
2022/11/30 00:27:49;;;;;;;34.27;23.73;;;1.30;99.90;0.30;101506;;;;582872;242;24092;-76
2022/11/30 00:30:17;;;;;;;32.50;23.87;;;1.30;99.90;0.30;101505;;;;583025;242;24095;-76
2022/11/30 00:32:45;;;;;;;35.13;24.37;;;1.30;99.90;0.30;101501;;;;582656;242;24064;-76
2022/11/30 00:35:13;;;;;;;32.63;23.87;;;1.30;99.90;0.30;101507;;;;583243;242;24043;-77
2022/11/30 00:37:41;;;;;;;31.67;23.90;;;1.30;99.90;0.30;101502;;;;582764;242;24059;-80
2022/11/30 00:40:09;;;;;;;30.57;22.57;;;1.30;99.90;0.30;101515;;;;582588;242;24080;-82
2022/11/30 00:42:37;;;;;;;33.50;23.80;;;1.30;99.90;0.30;101512;;;;582618;242;24062;-79
2022/11/30 00:45:05;;;;;;;32.57;23.77;;;1.30;99.90;0.30;101509;;;;582483;242;24051;-81
2022/11/30 00:47:37;;;;;;;33.13;23.17;;;1.30;99.90;0.30;101501;;;;584221;242;24055;-79
2022/11/30 00:50:05;;;;;;;32.37;22.80;;;1.30;99.90;0.30;101506;;;;583856;242;24060;-80
2022/11/30 00:52:30;;;;;;;32.40;22.33;;;1.30;99.90;0.40;101501;;;;583896;242;24100;-81
2022/11/30 00:54:58;;;;;;;34.27;24.13;;;1.30;99.90;0.40;101515;;;;582399;242;24071;-77
2022/11/30 00:57:26;;;;;;;32.50;23.57;;;1.40;99.90;0.40;101505;;;;582302;242;24058;-77
2022/11/30 00:59:54;;;;;;;32.77;22.47;;;1.30;99.90;0.40;101505;;;;582264;242;24072;-77
2022/11/30 01:02:22;;;;;;;33.80;24.13;;;1.30;99.90;0.40;101499;;;;582096;242;24085;-78
2022/11/30 01:04:50;;;;;;;32.17;22.93;;;1.30;99.90;0.40;101506;;;;582573;242;24099;-79
2022/11/30 01:07:18;;;;;;;34.43;24.30;;;1.30;99.90;0.30;101505;;;;582628;242;24037;-75
2022/11/30 01:09:46;;;;;;;34.67;25.47;;;1.30;99.90;0.40;101511;;;;593371;238;24053;-75
2022/11/30 01:12:14;;;;;;;33.30;23.37;;;1.30;99.90;0.30;101518;;;;582550;242;24040;-78
2022/11/30 01:14:42;;;;;;;33.97;22.80;;;1.30;99.90;0.30;101511;;;;582195;242;24071;-78
2022/11/30 01:17:10;;;;;;;31.67;23.37;;;1.30;99.90;0.30;101516;;;;582347;242;24102;-78
2022/11/30 01:19:38;;;;;;;32.50;23.40;;;1.30;99.90;0.30;101522;;;;582365;242;24080;-78
2022/11/30 01:22:06;;;;;;;35.30;24.80;;;1.30;99.90;0.30;101505;;;;593089;241;24117;-80
2022/11/30 01:24:34;;;;;;;33.13;22.73;;;1.30;99.90;0.30;101519;;;;582367;242;24058;-80
2022/11/30 01:27:02;;;;;;;33.83;24.60;;;1.30;99.90;0.30;101519;;;;582337;242;24184;-77
2022/11/30 01:29:30;;;;;;;34.07;23.70;;;1.30;99.90;0.30;101514;;;;582549;242;24093;-74
2022/11/30 01:31:59;;;;;;;35.93;24.00;;;1.30;99.90;0.30;101514;;;;582238;242;24099;-76
2022/11/30 01:34:27;;;;;;;31.63;23.20;;;1.30;99.90;0.30;101514;;;;583410;242;24058;-74
2022/11/30 01:36:55;;;;;;;31.60;23.07;;;1.30;99.90;0.30;101516;;;;583192;242;24039;-74
2022/11/30 01:39:23;;;;;;;34.07;23.47;;;1.30;99.90;0.30;101513;;;;582785;242;24055;-75
2022/11/30 01:41:51;;;;;;;32.50;23.67;;;1.30;99.90;0.30;101512;;;;582978;242;24080;-76
2022/11/30 01:44:25;;;;;;;33.63;23.53;;;1.30;99.90;0.30;101521;;;;584236;242;24110;-75
2022/11/30 01:47:05;;;;;;;33.73;23.23;;;1.30;99.90;0.30;101515;;;;582286;242;24063;-75
2022/11/30 01:49:36;;;;;;;32.70;24.80;;;1.30;99.90;0.30;101520;;;;584251;242;24048;-74
2022/11/30 01:52:10;;;;;;;34.27;24.33;;;1.30;99.90;0.20;101514;;;;593296;242;24048;-77
2022/11/30 01:54:40;;;;;;;33.37;23.23;;;1.20;99.90;0.30;101519;;;;582164;242;24075;-76
2022/11/30 01:57:14;;;;;;;34.97;26.92;;;1.30;99.90;0.30;101525;;;;587526;242;35141;-76
2022/11/30 01:59:46;;;;;;;31.27;23.03;;;1.30;99.90;0.30;101510;;;;583864;242;24072;-76
2022/11/30 02:02:13;;;;;;;31.03;23.63;;;1.30;99.90;0.30;101523;;;;583988;242;24068;-74
2022/11/30 02:04:38;;;;;;;33.43;24.63;;;1.30;99.90;0.30;101514;;;;591982;242;24071;-75
2022/11/30 02:07:05;;;;;;;32.20;22.83;;;1.30;99.90;0.30;101515;;;;593490;242;24053;-74
2022/11/30 02:09:36;;;;;;;30.00;22.40;;;1.30;99.90;0.40;101518;;;;584278;242;24053;-74
2022/11/30 02:12:07;;;;;;;32.90;24.33;;;1.30;99.90;0.30;101510;;;;582191;242;24060;-74
2022/11/30 02:14:50;;;;;;;30.87;22.53;;;1.30;99.90;0.30;101513;;;;591561;239;24123;-74
2022/11/30 02:17:30;;;;;;;31.67;23.83;;;1.30;99.90;0.30;101511;;;;573201;242;24088;-74
2022/11/30 02:20:10;;;;;;;34.27;23.17;;;1.30;99.90;0.30;101510;;;;575274;242;25100;-77
2022/11/30 02:23:09;;;;;;;30.17;24.23;;;1.30;99.90;0.30;101508;;;;582022;242;24065;-79
2022/11/30 02:25:45;;;;;;;31.17;21.97;;;1.20;99.90;0.30;101508;;;;574143;242;25109;-80
2022/11/30 02:28:45;;;;;;;31.67;22.73;;;1.20;99.90;0.30;101517;;;;584058;242;24078;-77
2022/11/30 02:31:13;;;;;;;30.73;22.37;;;1.20;99.90;0.20;101512;;;;583982;242;24099;-80
2022/11/30 02:33:40;;;;;;;29.07;22.37;;;1.20;99.90;0.20;101514;;;;584044;242;24112;-77
2022/11/30 02:36:08;;;;;;;31.30;22.30;;;1.20;99.90;0.20;101517;;;;582337;242;24066;-76
2022/11/30 02:38:39;;;;;;;29.97;22.03;;;1.20;99.90;0.20;101527;;;;580168;242;24078;-75
2022/11/30 02:41:04;;;;;;;32.47;22.83;;;1.20;99.90;0.20;101522;;;;583642;242;24089;-77
2022/11/30 02:43:32;;;;;;;31.53;22.53;;;1.20;99.90;0.20;101529;;;;582063;242;24147;-75
2022/11/30 02:46:15;;;;;;;32.80;23.20;;;1.20;99.90;0.20;101526;;;;581853;242;24075;-76
2022/11/30 02:49:16;;;;;;;30.03;21.63;;;1.20;99.90;0.20;101525;;;;584851;242;24163;-76
2022/11/30 02:51:47;;;;;;;31.70;21.87;;;1.20;99.90;0.20;101525;;;;584552;242;25086;-74
2022/11/30 02:54:13;;;;;;;28.63;21.20;;;1.20;99.90;0.20;101527;;;;582574;242;24072;-75
2022/11/30 02:56:41;;;;;;;31.43;22.60;;;1.20;99.90;0.20;101527;;;;582691;242;24111;-74
2022/11/30 02:59:09;;;;;;;30.97;22.67;;;1.20;99.90;0.20;101518;;;;582821;242;24063;-76
2022/11/30 03:01:41;;;;;;;38.93;22.87;;;1.20;99.90;0.20;101525;;;;593459;242;24083;-74
2022/11/30 03:04:07;;;;;;;32.27;22.50;;;1.20;99.90;0.20;101526;;;;582405;242;24080;-74
2022/11/30 03:06:35;;;;;;;30.37;22.17;;;1.20;99.90;0.20;101526;;;;582725;242;24079;-75
2022/11/30 03:09:03;;;;;;;33.73;22.67;;;1.20;99.90;0.20;101530;;;;582754;242;24048;-75
2022/11/30 03:11:31;;;;;;;30.13;21.77;;;1.20;99.90;0.20;101522;;;;582789;242;24070;-77
2022/11/30 03:14:00;;;;;;;32.30;22.53;;;1.20;99.90;0.30;101517;;;;582452;242;24055;-75
2022/11/30 03:16:28;;;;;;;29.40;21.87;;;1.20;99.90;0.20;101536;;;;582310;242;24047;-74
2022/11/30 03:18:59;;;;;;;28.93;21.80;;;1.20;99.90;0.30;101534;;;;582473;242;24069;-75
2022/11/30 03:21:30;;;;;;;32.40;22.80;;;1.20;99.90;0.20;101533;;;;582190;242;24069;-74
2022/11/30 03:23:56;;;;;;;31.80;22.97;;;1.20;99.90;0.20;101530;;;;582211;242;24076;-75
2022/11/30 03:26:24;;;;;;;31.77;21.73;;;1.20;99.90;0.30;101535;;;;582094;242;25129;-76
2022/11/30 03:28:56;;;;;;;29.87;21.40;;;1.20;99.90;0.20;101534;;;;582381;242;24109;-78
2022/11/30 03:31:20;;;;;;;30.60;20.80;;;1.20;99.90;0.20;101541;;;;582167;242;24087;-77
2022/11/30 03:33:48;;;;;;;30.10;22.27;;;1.20;99.90;0.20;101541;;;;582129;242;24083;-82
2022/11/30 03:36:16;;;;;;;30.33;21.43;;;1.20;99.90;0.20;101555;;;;582203;242;24072;-75
2022/11/30 03:38:46;;;;;;;29.57;22.80;;;1.20;99.90;0.20;101546;;;;582016;242;25095;-74
2022/11/30 03:41:13;;;;;;;32.47;22.63;;;1.20;99.90;0.20;101558;;;;582107;242;24083;-74
2022/11/30 03:43:41;;;;;;;31.13;23.57;;;1.20;99.90;0.20;101557;;;;583705;242;24059;-74
2022/11/30 03:46:09;;;;;;;31.83;22.83;;;1.20;99.90;0.20;101557;;;;582181;242;24090;-74
2022/11/30 03:48:40;;;;;;;30.07;22.30;;;1.20;99.90;0.20;101560;;;;592867;242;24063;-75
2022/11/30 03:51:05;;;;;;;31.13;20.93;;;1.20;99.90;0.30;101563;;;;583328;242;24083;-75
2022/11/30 03:53:33;;;;;;;29.13;20.37;;;1.20;99.90;0.30;101565;;;;582167;242;24106;-75
2022/11/30 03:56:01;;;;;;;30.40;22.20;;;1.20;99.90;0.30;101570;;;;582074;242;24109;-74
2022/11/30 03:58:29;;;;;;;29.43;21.50;;;1.20;99.90;0.20;101563;;;;583680;242;24074;-75
2022/11/30 04:01:06;;;;;;;30.53;22.10;;;1.20;99.90;0.20;101570;;;;584682;242;24086;-74
2022/11/30 04:03:34;;;;;;;30.20;22.20;;;1.20;99.90;0.30;101573;;;;584708;242;24114;-76
2022/11/30 04:06:05;;;;;;;33.20;21.83;;;1.20;99.90;0.20;101574;;;;593685;238;24098;-80
2022/11/30 04:08:30;;;;;;;28.17;22.30;;;1.20;99.90;0.20;101576;;;;582706;242;24115;-77
2022/11/30 04:10:59;;;;;;;32.27;23.23;;;1.20;99.90;0.20;101563;;;;593903;238;24067;-80
2022/11/30 04:13:27;;;;;;;32.77;22.10;;;1.20;99.90;0.20;101570;;;;584532;242;24073;-79
2022/11/30 04:15:58;;;;;;;31.73;22.30;;;1.20;99.90;0.20;101569;;;;582816;242;24044;-78
2022/11/30 04:18:23;;;;;;;32.13;22.67;;;1.20;99.90;0.20;101571;;;;592511;242;24096;-79
2022/11/30 04:20:54;;;;;;;31.07;22.23;;;1.20;99.90;0.20;101559;;;;582788;242;24064;-79
2022/11/30 04:23:18;;;;;;;31.03;22.43;;;1.20;99.90;0.20;101565;;;;582528;242;24060;-76
2022/11/30 04:25:46;;;;;;;30.77;22.53;;;1.20;99.90;0.20;101566;;;;582346;242;24068;-75
2022/11/30 04:28:14;;;;;;;33.57;23.20;;;1.20;99.90;0.20;101563;;;;582753;242;24053;-76
2022/11/30 04:30:43;;;;;;;32.73;23.40;;;1.20;99.90;0.20;101568;;;;582669;242;24083;-75
2022/11/30 04:33:12;;;;;;;28.30;20.90;;;1.20;99.90;0.20;101566;;;;593443;242;24061;-75
2022/11/30 04:35:40;;;;;;;32.17;23.00;;;1.20;99.90;0.20;101568;;;;584184;242;24076;-76
2022/11/30 04:38:08;;;;;;;31.77;23.17;;;1.20;99.90;0.20;101563;;;;582319;242;24060;-75
2022/11/30 04:40:35;;;;;;;34.57;22.87;;;1.10;99.90;0.20;101565;;;;582472;242;24119;-80
2022/11/30 04:43:03;;;;;;;32.50;23.10;;;1.20;99.90;0.20;101563;;;;582453;242;24091;-79
2022/11/30 04:45:31;;;;;;;33.67;24.47;;;1.20;99.90;0.20;101561;;;;582525;242;24049;-80
2022/11/30 04:47:59;;;;;;;33.87;22.23;;;1.10;99.90;0.20;101565;;;;592413;239;24052;-79
2022/11/30 04:50:28;;;;;;;30.13;21.83;;;1.20;99.90;0.20;101561;;;;592401;242;24098;-81
2022/11/30 04:52:56;;;;;;;29.90;20.80;;;1.20;99.90;0.20;101572;;;;592400;238;24079;-79
2022/11/30 04:55:24;;;;;;;28.97;22.27;;;1.20;99.90;0.20;101562;;;;592429;242;24107;-79
2022/11/30 04:57:51;;;;;;;28.63;22.47;;;1.20;99.90;0.20;101565;;;;592396;242;24073;-78
2022/11/30 05:00:20;;;;;;;33.30;21.70;;;1.20;99.90;0.20;101574;;;;592440;242;24072;-80
2022/11/30 05:02:48;;;;;;;31.87;22.00;;;1.20;99.90;0.20;101571;;;;592110;239;24115;-78
2022/11/30 05:05:16;;;;;;;29.57;22.37;;;1.20;99.90;0.10;101565;;;;592127;242;24085;-80
2022/11/30 05:07:44;;;;;;;32.77;22.30;;;1.10;99.90;0.10;101573;;;;592464;240;24083;-78
2022/11/30 05:10:12;;;;;;;31.53;21.93;;;1.10;99.90;0.20;101574;;;;593942;238;24084;-77
2022/11/30 05:12:40;;;;;;;31.50;22.20;;;1.10;99.90;0.20;101581;;;;593438;242;24099;-78
2022/11/30 05:15:11;;;;;;;31.90;23.07;;;1.10;99.90;0.20;101579;;;;592876;242;24080;-75
2022/11/30 05:17:36;;;;;;;31.60;21.90;;;1.10;99.90;0.20;101579;;;;592329;242;24060;-76
2022/11/30 05:20:04;;;;;;;31.83;22.43;;;1.10;99.90;0.20;101586;;;;592659;242;24125;-74
2022/11/30 05:22:34;;;;;;;32.57;23.20;;;1.10;99.90;0.20;101583;;;;592541;242;24075;-74
2022/11/30 05:25:01;;;;;;;34.97;22.53;;;1.10;99.90;0.20;101582;;;;592305;242;25104;-74
2022/11/30 05:27:28;;;;;;;33.23;23.17;;;1.10;99.90;0.10;101590;;;;592174;238;24081;-76
2022/11/30 05:29:56;;;;;;;30.63;21.47;;;1.20;99.90;0.10;101584;;;;592196;242;24076;-79
2022/11/30 05:32:24;;;;;;;30.83;22.83;;;1.10;99.90;0.10;101584;;;;592355;242;26387;-79
2022/11/30 05:34:52;;;;;;;34.37;22.60;;;1.10;99.90;0.10;101590;;;;592265;242;24056;-80
2022/11/30 05:37:20;;;;;;;30.40;21.43;;;1.10;99.90;0.10;101582;;;;592175;242;24082;-79
2022/11/30 05:39:48;;;;;;;35.03;21.40;;;1.10;99.90;0.10;101584;;;;592170;242;24111;-80
2022/11/30 05:42:16;;;;;;;32.43;22.07;;;1.10;99.90;0.10;101592;;;;592165;242;24083;-78
2022/11/30 05:44:44;;;;;;;29.97;21.57;;;1.10;99.90;0.10;101599;;;;592209;242;24102;-75
2022/11/30 05:47:12;;;;;;;32.97;22.63;;;1.10;99.90;0.10;101593;;;;591924;242;24061;-74
2022/11/30 05:49:39;;;;;;;32.50;23.10;;;1.10;99.90;0.10;101607;;;;592081;242;24076;-76
2022/11/30 05:52:07;;;;;;;31.40;22.47;;;1.10;99.90;0.10;101600;;;;591851;242;24096;-75
2022/11/30 05:54:35;;;;;;;34.13;22.10;;;1.10;99.90;0.10;101602;;;;591877;242;24076;-75
2022/11/30 05:57:04;;;;;;;34.00;22.53;;;1.10;99.90;0.10;101606;;;;592012;242;24107;-75
2022/11/30 05:59:32;;;;;;;32.40;22.67;;;1.10;99.90;0.10;101608;;;;591950;242;24112;-75
2022/11/30 06:02:03;;;;;;;32.07;22.80;;;1.10;99.90;0.10;101616;;;;592052;239;25476;-76
2022/11/30 06:04:27;;;;;;;32.37;22.40;;;1.10;99.90;0.10;101617;;;;591627;242;24061;-75
2022/11/30 06:06:56;;;;;;;29.80;21.37;;;1.00;99.90;0.10;101617;;;;591881;242;24077;-74
2022/11/30 06:09:24;;;;;;;29.87;20.87;;;1.00;99.90;0.10;101624;;;;592326;242;25145;-76
2022/11/30 06:11:52;;;;;;;33.47;22.57;;;1.10;99.90;0.10;101619;;;;592374;242;24068;-74
2022/11/30 06:14:21;;;;;;;37.73;26.50;;;1.10;99.90;0.10;101622;;;;592067;242;24088;-73
2022/11/30 06:16:48;;;;;;;31.47;22.60;;;1.10;99.90;0.10;101619;;;;591904;242;24083;-74
2022/11/30 06:19:16;;;;;;;32.10;23.73;;;1.10;99.90;0.10;101620;;;;592123;242;24084;-74
2022/11/30 06:21:44;;;;;;;30.10;22.33;;;1.10;99.90;0.10;101621;;;;593787;241;24107;-79
2022/11/30 06:24:12;;;;;;;30.93;22.60;;;1.10;99.90;0.10;101630;;;;593121;242;24072;-78
2022/11/30 06:26:40;;;;;;;30.97;22.43;;;1.10;99.90;0.10;101627;;;;592920;242;24064;-79
2022/11/30 06:29:08;;;;;;;33.47;22.03;;;1.10;99.90;0.10;101630;;;;592644;242;24097;-77
2022/11/30 06:31:36;;;;;;;33.63;22.87;;;1.10;99.90;0.10;101626;;;;592611;242;24096;-77
2022/11/30 06:34:04;;;;;;;28.37;20.43;;;1.10;99.90;0.10;101632;;;;592516;242;24075;-77
2022/11/30 06:36:32;;;;;;;32.17;22.70;;;1.10;99.90;0.10;101625;;;;592430;242;24110;-75
2022/11/30 06:38:59;;;;;;;35.07;22.27;;;1.10;99.90;0.10;101638;;;;592357;242;24097;-76
2022/11/30 06:41:27;;;;;;;36.47;23.87;;;1.10;99.90;0.10;101633;;;;592157;242;24069;-77
2022/11/30 06:43:56;;;;;;;34.27;23.63;;;1.10;99.90;0.10;101641;;;;592331;242;24092;-77
2022/11/30 06:46:25;;;;;;;30.20;22.27;;;1.10;99.90;0.10;101647;;;;592234;242;24087;-74
2022/11/30 06:48:52;;;;;;;34.70;21.87;;;1.10;99.90;0.10;101643;;;;592302;242;24087;-74
2022/11/30 06:51:19;;;;;;;33.13;22.63;;;1.10;99.90;0.10;101653;;;;592308;242;24085;-75
2022/11/30 06:53:47;;;;;;;34.30;23.00;;;1.10;99.90;0.10;101651;;;;592326;239;24080;-78
2022/11/30 06:56:15;;;;;;;35.07;23.13;;;1.10;99.90;0.10;101650;;;;592499;242;24170;-79
2022/11/30 06:58:43;;;;;;;35.33;25.63;;;1.10;99.90;0.10;101657;;;;592178;238;24086;-79
2022/11/30 07:01:11;;;;;;;32.77;23.37;;;1.10;99.90;0.10;101650;;;;592364;242;24086;-76
2022/11/30 07:03:39;;;;;;;32.27;21.93;;;1.10;99.90;0.20;101650;;;;592236;242;24064;-76
2022/11/30 07:06:09;;;;;;;35.60;23.57;;;1.10;99.90;0.20;101657;;;;592078;242;24123;-75
2022/11/30 07:08:37;;;;;;;34.00;22.73;;;1.20;99.90;0.10;101652;;;;591873;242;24078;-77
2022/11/30 07:11:09;;;;;;;32.17;21.13;;;1.10;99.90;0.10;101654;;;;592571;238;24113;-75
2022/11/30 07:13:37;;;;;;;33.10;24.03;;;1.10;99.90;0.10;101673;;;;592003;242;24086;-75
2022/11/30 07:16:08;;;;;;;30.77;21.23;;;1.10;99.90;0.20;101672;;;;591817;242;24062;-80
2022/11/30 07:18:39;;;;;;;31.43;21.57;;;1.10;99.90;0.20;101664;;;;592026;242;24100;-74
2022/11/30 07:21:04;;;;;;;31.10;20.67;;;1.10;99.90;0.10;101677;;;;591720;242;24090;-76
2022/11/30 07:26:21;;;;;;;32.17;22.63;;;1.10;99.90;0.20;101680;;;;591937;242;24072;-74
2022/11/30 07:28:46;;;;;;;31.73;23.00;;;1.10;99.90;0.20;101678;;;;591946;242;24170;-79
2022/11/30 07:31:22;;;;;;;36.90;22.80;;;1.10;99.90;0.20;101679;;;;592132;241;24070;-75
2022/11/30 07:33:53;;;;;;;31.30;21.87;;;1.10;99.90;0.20;101687;;;;593832;242;24102;-79
2022/11/30 07:36:18;;;;;;;35.67;21.93;;;1.10;99.90;0.20;101689;;;;592825;242;25105;-76
2022/11/30 07:38:48;;;;;;;36.07;22.20;;;1.20;99.90;0.20;101688;;;;592701;242;24123;-76
2022/11/30 07:41:15;;;;;;;34.83;23.67;;;1.20;99.90;0.20;101677;;;;592725;242;24135;-79
2022/11/30 07:43:43;;;;;;;39.90;23.77;;;1.20;99.90;0.20;101687;;;;592387;242;24079;-76
2022/11/30 07:46:11;;;;;;;32.67;20.93;;;1.20;99.90;0.30;101692;;;;592610;242;25112;-77
2022/11/30 07:48:39;;;;;;;31.93;22.17;;;1.20;99.90;0.20;101685;;;;592636;242;24098;-75
2022/11/30 07:51:07;;;;;;;30.57;21.73;;;1.20;99.90;0.20;101682;;;;592515;239;24129;-75
2022/11/30 07:53:36;;;;;;;30.60;22.03;;;1.20;99.90;0.20;101682;;;;592099;242;24057;-75
2022/11/30 07:56:06;;;;;;;31.23;22.90;;;1.20;99.90;0.20;101691;;;;592150;242;24079;-75
2022/11/30 07:58:34;;;;;;;31.07;22.77;;;1.20;99.90;0.20;101688;;;;592326;242;24083;-75
2022/11/30 08:01:08;;;;;;;29.63;20.53;;;1.20;99.90;0.20;101684;;;;592277;242;24083;-76
2022/11/30 08:03:36;;;;;;;33.37;22.10;;;1.20;99.90;0.30;101683;;;;592226;242;24088;-76
2022/11/30 08:06:13;;;;;;;30.67;22.53;;;1.20;99.90;0.30;101687;;;;592261;242;24096;-76
2022/11/30 08:08:44;;;;;;;32.33;21.13;;;1.20;99.90;0.20;101684;;;;592206;242;24076;-75
2022/11/30 08:11:09;;;;;;;33.17;22.43;;;1.20;99.90;0.20;101682;;;;592312;242;24064;-76
2022/11/30 08:13:41;;;;;;;31.83;22.27;;;1.20;99.90;0.20;101682;;;;592379;242;24076;-75
2022/11/30 08:16:05;;;;;;;33.00;21.70;;;1.20;99.90;0.30;101692;;;;591845;242;24087;-78
2022/11/30 08:18:33;;;;;;;31.87;22.63;;;1.20;99.90;0.30;101681;;;;592080;239;24063;-77
2022/11/30 08:21:01;;;;;;;31.97;21.23;;;1.30;99.90;0.30;101692;;;;592404;242;24085;-75
2022/11/30 08:23:33;;;;;;;32.43;21.40;;;1.30;99.90;0.30;101685;;;;591993;239;24081;-76
2022/11/30 08:26:05;;;;;;;34.20;22.83;;;1.30;99.90;0.30;101683;;;;592171;242;24081;-76
2022/11/30 08:28:34;;;;;;;31.17;22.43;;;1.30;99.90;0.30;101690;;;;591790;240;24079;-76
2022/11/30 08:31:04;;;;;;;36.23;23.57;;;1.30;99.90;0.30;101695;;;;591889;242;24080;-78
2022/11/30 08:33:28;;;;;;;34.07;21.97;;;1.30;99.90;0.30;101690;;;;591710;242;24067;-75
2022/11/30 08:36:10;;;;;;;35.57;21.97;;;1.30;99.90;0.30;101694;;;;591934;242;24095;-78
2022/11/30 08:38:42;;;;;;;36.00;24.07;;;1.30;99.90;0.30;101696;;;;592099;242;24390;-75
2022/11/30 08:41:06;;;;;;;34.63;23.03;;;1.30;99.90;0.30;101706;;;;592203;242;24092;-75
2022/11/30 08:43:34;;;;;;;38.87;24.47;;;1.30;99.90;0.40;101699;;;;592824;239;24070;-75
2022/11/30 08:46:05;;;;;;;31.97;21.47;;;1.30;99.90;0.40;101702;;;;593365;242;24075;-76
2022/11/30 08:48:30;;;;;;;35.47;23.33;;;1.30;99.90;0.40;101705;;;;592979;238;24052;-79
2022/11/30 08:51:01;;;;;;;30.10;21.23;;;1.30;99.90;0.40;101705;;;;592880;242;24114;-74
2022/11/30 08:53:29;;;;;;;32.47;23.03;;;1.30;99.90;0.40;101708;;;;592529;242;24077;-77
2022/11/30 08:55:59;;;;;;;34.70;24.13;;;1.30;99.90;0.30;101711;;;;592616;242;24076;-80
2022/11/30 08:58:27;;;;;;;33.53;22.87;;;1.30;99.90;0.30;101700;;;;593049;242;24144;-75
2022/11/30 09:00:56;;;;;;;34.77;23.90;;;1.30;99.90;0.30;101710;;;;592613;242;24123;-75
2022/11/30 09:03:24;;;;;;;37.40;23.93;;;1.30;99.90;0.40;101716;;;;591035;241;25441;-74
2022/11/30 09:05:52;;;;;;;32.93;22.13;;;1.30;99.90;0.40;101714;;;;592547;242;24064;-77
2022/11/30 09:08:21;;;;;;;35.10;23.53;;;1.30;99.90;0.40;101720;;;;592349;238;24083;-76
2022/11/30 09:10:49;;;;;;;29.97;22.50;;;1.30;99.90;0.40;101718;;;;592554;242;24064;-75
2022/11/30 09:13:20;;;;;;;31.00;21.77;;;1.40;99.90;0.50;101725;;;;592754;242;24088;-76
2022/11/30 09:15:44;;;;;;;35.47;22.73;;;1.40;99.90;0.50;101707;;;;592085;242;25161;-75
2022/11/30 09:18:13;;;;;;;33.47;24.07;;;1.40;99.90;0.40;101714;;;;592391;239;24090;-75
2022/11/30 09:20:47;;;;;;;32.97;23.50;;;1.40;99.90;0.40;101720;;;;592119;242;24072;-78
2022/11/30 09:23:12;;;;;;;34.37;23.40;;;1.40;99.90;0.50;101721;;;;592434;242;24065;-79
2022/11/30 09:25:40;;;;;;;31.47;21.23;;;1.40;99.90;0.50;101716;;;;592199;242;24075;-76
2022/11/30 09:28:08;;;;;;;32.67;22.90;;;1.40;99.90;0.40;101719;;;;592160;238;24129;-75
2022/11/30 09:30:36;;;;;;;31.67;22.87;;;1.40;99.90;0.50;101712;;;;592004;242;24082;-77
2022/11/30 09:33:04;;;;;;;32.87;23.03;;;1.40;99.90;0.50;101716;;;;591996;242;24087;-76
2022/11/30 09:35:31;;;;;;;32.97;22.63;;;1.50;99.90;0.50;101723;;;;592534;242;24064;-79
2022/11/30 09:38:00;;;;;;;38.00;23.27;;;1.60;99.90;0.60;101735;;;;592235;242;24097;-79
2022/11/30 09:40:32;;;;;;;32.50;21.97;;;1.50;99.90;0.60;101718;;;;592284;242;24118;-76
2022/11/30 09:43:07;;;;;;;30.33;21.37;;;1.60;99.90;0.70;101721;;;;591662;242;24096;-75
2022/11/30 09:45:35;;;;;;;34.80;23.40;;;1.60;99.90;0.70;101727;;;;590308;242;24072;-75
2022/11/30 09:48:12;;;;;;;33.63;22.00;;;1.70;99.90;0.70;101723;;;;592176;239;24072;-78
2022/11/30 09:50:40;;;;;;;32.40;22.53;;;1.70;99.90;0.70;101720;;;;592658;242;24134;-75
2022/11/30 09:53:10;;;;;;;31.83;23.07;;;1.70;99.90;0.70;101719;;;;591929;242;24138;-77
2022/11/30 09:55:41;;;;;;;34.10;23.87;;;1.60;99.90;0.70;101719;;;;593508;240;24148;-75
2022/11/30 09:58:36;;;;;;;33.10;22.47;;;1.70;99.90;0.70;101717;;;;593271;238;24118;-76
2022/11/30 10:01:04;;;;;;;30.13;22.47;;;1.70;99.90;0.70;101721;;;;593599;242;24067;-78
2022/11/30 10:03:32;;;;;;;29.13;21.83;;;1.70;99.90;0.80;101717;;;;593307;242;24075;-80
2022/11/30 10:06:06;;;;;;;30.37;21.37;;;1.70;99.90;0.80;101710;;;;592966;242;24107;-76
2022/11/30 10:08:54;;;;;;;33.77;22.60;;;1.70;99.90;0.80;101703;;;;593847;239;24170;-74
2022/11/30 10:11:43;;;;;;;29.87;22.23;;;1.70;99.90;0.80;101708;;;;594056;242;24067;-74
2022/11/30 10:14:54;;;;;;;27.00;20.50;;;1.70;99.90;0.80;101704;;;;592792;242;24096;-76
2022/11/30 10:17:34;;;;;;;29.37;21.70;;;1.70;99.90;0.80;101714;;;;593077;242;24095;-76
2022/11/30 10:20:05;;;;;;;31.17;22.23;;;1.70;99.90;0.80;101712;;;;592185;242;24123;-75
2022/11/30 10:22:56;;;;;;;32.03;25.12;;;1.80;99.90;0.90;101711;;;;586850;242;35141;-75
2022/11/30 10:25:43;;;;;;;29.27;21.57;;;1.90;99.90;0.90;101703;;;;592817;242;24061;-75
2022/11/30 10:28:50;;;;;;;29.00;20.50;;;1.80;99.90;0.90;101710;;;;591548;238;24076;-76
2022/11/30 10:31:21;;;;;;;27.33;21.33;;;1.90;99.90;0.90;101700;;;;592325;242;24075;-75
2022/11/30 10:33:49;;;;;;;28.17;22.57;;;1.90;99.90;1.00;101708;;;;592033;241;24091;-74
2022/11/30 10:36:41;;;;;;;32.67;22.43;;;1.90;99.90;1.00;101704;;;;591863;242;24047;-75
2022/11/30 10:39:28;;;;;;;29.93;21.37;;;2.00;99.90;1.00;101704;;;;591295;239;24084;-75
2022/11/30 10:42:09;;;;;;;30.93;21.47;;;1.90;99.90;1.00;101706;;;;589677;242;24084;-75
2022/11/30 10:44:39;;;;;;;30.63;22.07;;;1.90;99.90;1.00;101715;;;;591882;242;24126;-73
2022/11/30 10:47:13;;;;;;;29.23;20.83;;;1.90;99.90;1.00;101709;;;;591779;241;24076;-74
2022/11/30 10:49:41;;;;;;;26.50;21.27;;;1.90;99.90;0.90;101710;;;;591650;239;24136;-74
2022/11/30 10:52:12;;;;;;;30.03;22.40;;;1.90;99.90;0.90;101711;;;;591514;242;24079;-76
2022/11/30 10:54:36;;;;;;;30.77;21.37;;;1.90;99.90;0.90;101711;;;;591566;242;24126;-74
2022/11/30 10:57:04;;;;;;;26.80;20.10;;;1.80;99.90;0.90;101710;;;;591832;242;24068;-76
2022/11/30 10:59:50;;;;;;;30.97;21.17;;;1.80;99.90;0.90;101709;;;;591658;242;24102;-74
2022/11/30 11:02:42;;;;;;;30.87;22.07;;;1.80;99.90;0.90;101708;;;;592216;242;24103;-75
2022/11/30 11:05:15;;;;;;;34.07;22.83;;;1.80;99.90;0.90;101713;;;;592191;241;24090;-74
2022/11/30 11:08:01;;;;;;;29.37;21.67;;;1.80;99.90;0.80;101709;;;;593286;241;24135;-75
2022/11/30 11:10:35;;;;;;;32.77;22.83;;;1.80;99.90;0.80;101716;;;;593448;242;24174;-75
2022/11/30 11:13:06;;;;;;;32.53;22.63;;;1.80;99.90;0.90;101718;;;;592539;242;24083;-75
2022/11/30 11:15:30;;;;;;;30.17;21.90;;;1.80;99.90;0.90;101718;;;;592465;242;24076;-75
2022/11/30 11:18:19;;;;;;;30.53;21.47;;;1.80;99.90;0.90;101720;;;;592284;242;24085;-76
2022/11/30 11:20:47;;;;;;;31.00;22.33;;;1.80;99.90;0.90;101717;;;;592289;242;24077;-75
2022/11/30 11:23:27;;;;;;;31.43;20.87;;;1.90;99.90;1.00;101719;;;;592318;242;24098;-77
2022/11/30 11:25:59;;;;;;;31.90;23.10;;;1.90;99.90;0.90;101705;;;;589762;242;24073;-75